sensor_id;sensor_type;location;lat;lon;timestamp;P1;durP1;ratioP1;P2;durP2;ratioP2
19554;SDS011;9924;50.828;6.440;2023-09-19T00:00:29;7.43;;;2.08;;
19554;SDS011;9924;50.828;6.440;2023-09-19T00:02:56;7.70;;;1.88;;
19554;SDS011;9924;50.828;6.440;2023-09-19T00:05:22;6.03;;;1.90;;
19554;SDS011;9924;50.828;6.440;2023-09-19T00:07:52;4.68;;;1.98;;
19554;SDS011;9924;50.828;6.440;2023-09-19T00:10:20;7.50;;;1.83;;
19554;SDS011;9924;50.828;6.440;2023-09-19T00:12:47;7.13;;;1.92;;
19554;SDS011;9924;50.828;6.440;2023-09-19T00:15:13;3.90;;;1.63;;
19554;SDS011;9924;50.828;6.440;2023-09-19T00:17:43;7.90;;;1.92;;
19554;SDS011;9924;50.828;6.440;2023-09-19T00:20:09;6.80;;;1.52;;
19554;SDS011;9924;50.828;6.440;2023-09-19T00:22:40;8.40;;;1.92;;
19554;SDS011;9924;50.828;6.440;2023-09-19T00:25:10;9.93;;;1.80;;
19554;SDS011;9924;50.828;6.440;2023-09-19T00:27:40;6.63;;;1.77;;
19554;SDS011;9924;50.828;6.440;2023-09-19T00:30:11;12.05;;;1.80;;
19554;SDS011;9924;50.828;6.440;2023-09-19T00:32:47;9.50;;;1.70;;
19554;SDS011;9924;50.828;6.440;2023-09-19T00:35:14;6.18;;;1.52;;
19554;SDS011;9924;50.828;6.440;2023-09-19T00:37:44;6.90;;;1.90;;
19554;SDS011;9924;50.828;6.440;2023-09-19T00:40:10;9.05;;;2.33;;
19554;SDS011;9924;50.828;6.440;2023-09-19T00:42:40;6.72;;;1.70;;
19554;SDS011;9924;50.828;6.440;2023-09-19T00:45:10;8.85;;;1.83;;
19554;SDS011;9924;50.828;6.440;2023-09-19T00:47:49;8.70;;;2.22;;
19554;SDS011;9924;50.828;6.440;2023-09-19T00:50:17;4.85;;;1.55;;
19554;SDS011;9924;50.828;6.440;2023-09-19T00:52:44;6.88;;;1.40;;
19554;SDS011;9924;50.828;6.440;2023-09-19T00:55:12;8.27;;;1.77;;
19554;SDS011;9924;50.828;6.440;2023-09-19T00:57:41;8.23;;;1.77;;
19554;SDS011;9924;50.828;6.440;2023-09-19T01:00:09;5.82;;;2.00;;
19554;SDS011;9924;50.828;6.440;2023-09-19T01:02:40;7.28;;;1.85;;
19554;SDS011;9924;50.828;6.440;2023-09-19T01:05:08;6.85;;;1.40;;
19554;SDS011;9924;50.828;6.440;2023-09-19T01:07:35;5.57;;;1.58;;
19554;SDS011;9924;50.828;6.440;2023-09-19T01:10:05;6.07;;;1.80;;
19554;SDS011;9924;50.828;6.440;2023-09-19T01:20:38;7.85;;;1.70;;
19554;SDS011;9924;50.828;6.440;2023-09-19T01:28:52;8.80;;;1.75;;
19554;SDS011;9924;50.828;6.440;2023-09-19T01:31:28;10.05;;;1.58;;
19554;SDS011;9924;50.828;6.440;2023-09-19T01:34:00;8.05;;;1.80;;
19554;SDS011;9924;50.828;6.440;2023-09-19T01:36:32;7.00;;;1.77;;
19554;SDS011;9924;50.828;6.440;2023-09-19T01:39:01;3.67;;;1.40;;
19554;SDS011;9924;50.828;6.440;2023-09-19T01:44:49;5.70;;;1.70;;
19554;SDS011;9924;50.828;6.440;2023-09-19T01:53:07;7.38;;;1.88;;
19554;SDS011;9924;50.828;6.440;2023-09-19T01:55:41;7.63;;;1.75;;
19554;SDS011;9924;50.828;6.440;2023-09-19T01:58:21;10.20;;;1.95;;
19554;SDS011;9924;50.828;6.440;2023-09-19T02:00:50;9.25;;;1.75;;
19554;SDS011;9924;50.828;6.440;2023-09-19T02:03:18;13.10;;;2.10;;
19554;SDS011;9924;50.828;6.440;2023-09-19T02:05:50;9.13;;;2.00;;
19554;SDS011;9924;50.828;6.440;2023-09-19T02:08:19;9.38;;;2.08;;
19554;SDS011;9924;50.828;6.440;2023-09-19T02:10:48;10.88;;;2.13;;
19554;SDS011;9924;50.828;6.440;2023-09-19T02:13:17;5.40;;;1.55;;
19554;SDS011;9924;50.828;6.440;2023-09-19T02:15:47;9.55;;;2.13;;
19554;SDS011;9924;50.828;6.440;2023-09-19T02:18:13;7.93;;;2.10;;
19554;SDS011;9924;50.828;6.440;2023-09-19T02:20:39;7.95;;;2.30;;
19554;SDS011;9924;50.828;6.440;2023-09-19T02:23:05;10.52;;;2.10;;
19554;SDS011;9924;50.828;6.440;2023-09-19T02:25:33;7.20;;;1.83;;
19554;SDS011;9924;50.828;6.440;2023-09-19T02:27:58;6.53;;;1.80;;
19554;SDS011;9924;50.828;6.440;2023-09-19T02:30:26;9.35;;;1.38;;
19554;SDS011;9924;50.828;6.440;2023-09-19T02:32:52;6.03;;;1.80;;
19554;SDS011;9924;50.828;6.440;2023-09-19T02:35:18;7.45;;;1.88;;
19554;SDS011;9924;50.828;6.440;2023-09-19T02:37:45;9.63;;;2.20;;
19554;SDS011;9924;50.828;6.440;2023-09-19T02:40:11;9.88;;;2.33;;
19554;SDS011;9924;50.828;6.440;2023-09-19T02:42:54;11.27;;;2.63;;
19554;SDS011;9924;50.828;6.440;2023-09-19T02:45:21;11.20;;;1.90;;
19554;SDS011;9924;50.828;6.440;2023-09-19T02:47:48;11.85;;;2.08;;
19554;SDS011;9924;50.828;6.440;2023-09-19T02:50:14;10.20;;;2.28;;
19554;SDS011;9924;50.828;6.440;2023-09-19T02:52:41;11.73;;;1.95;;
19554;SDS011;9924;50.828;6.440;2023-09-19T02:55:13;9.70;;;1.80;;
19554;SDS011;9924;50.828;6.440;2023-09-19T02:57:48;11.20;;;2.10;;
19554;SDS011;9924;50.828;6.440;2023-09-19T03:00:19;6.22;;;1.83;;
19554;SDS011;9924;50.828;6.440;2023-09-19T03:02:53;10.90;;;3.45;;
19554;SDS011;9924;50.828;6.440;2023-09-19T03:05:20;6.25;;;1.73;;
19554;SDS011;9924;50.828;6.440;2023-09-19T03:07:46;14.63;;;2.15;;
19554;SDS011;9924;50.828;6.440;2023-09-19T03:10:19;6.43;;;1.80;;
19554;SDS011;9924;50.828;6.440;2023-09-19T03:12:46;8.73;;;2.00;;
19554;SDS011;9924;50.828;6.440;2023-09-19T03:15:12;8.48;;;2.20;;
19554;SDS011;9924;50.828;6.440;2023-09-19T03:17:42;9.27;;;2.05;;
19554;SDS011;9924;50.828;6.440;2023-09-19T03:20:10;11.15;;;2.05;;
19554;SDS011;9924;50.828;6.440;2023-09-19T03:22:38;9.07;;;2.17;;
19554;SDS011;9924;50.828;6.440;2023-09-19T03:25:05;12.05;;;2.47;;
19554;SDS011;9924;50.828;6.440;2023-09-19T03:27:33;11.85;;;2.03;;
19554;SDS011;9924;50.828;6.440;2023-09-19T03:30:00;8.85;;;2.45;;
19554;SDS011;9924;50.828;6.440;2023-09-19T03:32:26;9.05;;;1.60;;
19554;SDS011;9924;50.828;6.440;2023-09-19T03:34:51;9.30;;;2.40;;
19554;SDS011;9924;50.828;6.440;2023-09-19T03:37:17;5.65;;;1.90;;
19554;SDS011;9924;50.828;6.440;2023-09-19T03:39:43;12.15;;;2.17;;
19554;SDS011;9924;50.828;6.440;2023-09-19T03:42:09;11.43;;;2.58;;
19554;SDS011;9924;50.828;6.440;2023-09-19T03:44:34;9.48;;;1.85;;
19554;SDS011;9924;50.828;6.440;2023-09-19T03:47:00;10.35;;;2.30;;
19554;SDS011;9924;50.828;6.440;2023-09-19T03:49:26;9.48;;;1.95;;
19554;SDS011;9924;50.828;6.440;2023-09-19T03:51:52;9.23;;;1.85;;
19554;SDS011;9924;50.828;6.440;2023-09-19T03:54:17;7.30;;;2.45;;
19554;SDS011;9924;50.828;6.440;2023-09-19T03:56:44;11.65;;;2.17;;
19554;SDS011;9924;50.828;6.440;2023-09-19T03:59:10;8.27;;;2.13;;
19554;SDS011;9924;50.828;6.440;2023-09-19T04:01:37;10.45;;;2.15;;
19554;SDS011;9924;50.828;6.440;2023-09-19T04:04:04;9.98;;;1.90;;
19554;SDS011;9924;50.828;6.440;2023-09-19T04:06:36;10.07;;;2.00;;
19554;SDS011;9924;50.828;6.440;2023-09-19T04:09:02;9.55;;;1.90;;
19554;SDS011;9924;50.828;6.440;2023-09-19T04:11:29;12.75;;;1.85;;
19554;SDS011;9924;50.828;6.440;2023-09-19T04:13:55;8.85;;;2.03;;
19554;SDS011;9924;50.828;6.440;2023-09-19T04:16:21;8.85;;;2.00;;
19554;SDS011;9924;50.828;6.440;2023-09-19T04:18:47;10.25;;;2.42;;
19554;SDS011;9924;50.828;6.440;2023-09-19T04:21:13;10.00;;;2.10;;
19554;SDS011;9924;50.828;6.440;2023-09-19T04:23:39;7.15;;;1.95;;
19554;SDS011;9924;50.828;6.440;2023-09-19T04:26:04;14.50;;;2.10;;
19554;SDS011;9924;50.828;6.440;2023-09-19T04:28:31;10.10;;;1.88;;
19554;SDS011;9924;50.828;6.440;2023-09-19T04:30:59;12.40;;;2.45;;
19554;SDS011;9924;50.828;6.440;2023-09-19T04:33:26;12.43;;;2.55;;
19554;SDS011;9924;50.828;6.440;2023-09-19T04:35:55;6.95;;;1.70;;
19554;SDS011;9924;50.828;6.440;2023-09-19T04:38:21;13.93;;;2.10;;
19554;SDS011;9924;50.828;6.440;2023-09-19T04:40:47;16.55;;;2.40;;
19554;SDS011;9924;50.828;6.440;2023-09-19T04:43:12;10.82;;;2.13;;
19554;SDS011;9924;50.828;6.440;2023-09-19T04:45:38;9.55;;;2.08;;
19554;SDS011;9924;50.828;6.440;2023-09-19T04:48:05;12.85;;;2.22;;
19554;SDS011;9924;50.828;6.440;2023-09-19T04:50:34;11.82;;;2.75;;
19554;SDS011;9924;50.828;6.440;2023-09-19T04:53:00;13.45;;;2.55;;
19554;SDS011;9924;50.828;6.440;2023-09-19T04:55:26;8.38;;;2.08;;
19554;SDS011;9924;50.828;6.440;2023-09-19T04:57:52;7.55;;;1.80;;
19554;SDS011;9924;50.828;6.440;2023-09-19T05:00:22;10.07;;;2.03;;
19554;SDS011;9924;50.828;6.440;2023-09-19T05:02:55;17.20;;;2.70;;
19554;SDS011;9924;50.828;6.440;2023-09-19T05:05:21;12.77;;;2.30;;
19554;SDS011;9924;50.828;6.440;2023-09-19T05:07:48;6.40;;;2.38;;
19554;SDS011;9924;50.828;6.440;2023-09-19T05:10:16;9.52;;;2.25;;
19554;SDS011;9924;50.828;6.440;2023-09-19T05:12:43;8.65;;;2.42;;
19554;SDS011;9924;50.828;6.440;2023-09-19T05:15:13;12.13;;;2.22;;
19554;SDS011;9924;50.828;6.440;2023-09-19T05:17:40;11.32;;;2.28;;
19554;SDS011;9924;50.828;6.440;2023-09-19T05:20:06;7.07;;;1.90;;
19554;SDS011;9924;50.828;6.440;2023-09-19T05:22:44;11.10;;;2.10;;
19554;SDS011;9924;50.828;6.440;2023-09-19T05:25:11;10.38;;;2.55;;
19554;SDS011;9924;50.828;6.440;2023-09-19T05:27:41;9.27;;;1.98;;
19554;SDS011;9924;50.828;6.440;2023-09-19T05:30:07;9.60;;;2.60;;
19554;SDS011;9924;50.828;6.440;2023-09-19T05:32:33;12.95;;;2.00;;
19554;SDS011;9924;50.828;6.440;2023-09-19T05:35:00;9.82;;;2.20;;
19554;SDS011;9924;50.828;6.440;2023-09-19T05:37:26;10.18;;;2.00;;
19554;SDS011;9924;50.828;6.440;2023-09-19T05:39:52;12.48;;;2.42;;
19554;SDS011;9924;50.828;6.440;2023-09-19T05:42:19;10.00;;;2.67;;
19554;SDS011;9924;50.828;6.440;2023-09-19T05:44:44;7.70;;;1.85;;
19554;SDS011;9924;50.828;6.440;2023-09-19T05:47:10;9.73;;;1.92;;
19554;SDS011;9924;50.828;6.440;2023-09-19T05:49:36;16.08;;;2.47;;
19554;SDS011;9924;50.828;6.440;2023-09-19T05:52:05;9.02;;;2.38;;
19554;SDS011;9924;50.828;6.440;2023-09-19T05:54:32;16.73;;;2.35;;
19554;SDS011;9924;50.828;6.440;2023-09-19T05:56:59;13.77;;;1.98;;
19554;SDS011;9924;50.828;6.440;2023-09-19T05:59:26;12.23;;;2.58;;
19554;SDS011;9924;50.828;6.440;2023-09-19T06:01:52;9.20;;;2.65;;
19554;SDS011;9924;50.828;6.440;2023-09-19T06:04:18;8.30;;;1.70;;
19554;SDS011;9924;50.828;6.440;2023-09-19T06:06:44;18.40;;;2.67;;
19554;SDS011;9924;50.828;6.440;2023-09-19T06:09:10;10.55;;;2.35;;
19554;SDS011;9924;50.828;6.440;2023-09-19T06:11:36;21.00;;;2.88;;
19554;SDS011;9924;50.828;6.440;2023-09-19T06:14:02;8.57;;;2.33;;
19554;SDS011;9924;50.828;6.440;2023-09-19T06:16:29;7.22;;;2.03;;
19554;SDS011;9924;50.828;6.440;2023-09-19T06:18:55;11.02;;;1.92;;
19554;SDS011;9924;50.828;6.440;2023-09-19T06:21:23;12.43;;;2.25;;
19554;SDS011;9924;50.828;6.440;2023-09-19T06:23:49;10.98;;;2.38;;
19554;SDS011;9924;50.828;6.440;2023-09-19T06:26:15;10.35;;;2.83;;
19554;SDS011;9924;50.828;6.440;2023-09-19T06:28:41;10.35;;;2.22;;
19554;SDS011;9924;50.828;6.440;2023-09-19T06:31:07;11.68;;;2.53;;
19554;SDS011;9924;50.828;6.440;2023-09-19T06:33:37;13.07;;;2.22;;
19554;SDS011;9924;50.828;6.440;2023-09-19T06:36:04;8.32;;;2.15;;
19554;SDS011;9924;50.828;6.440;2023-09-19T06:38:31;10.43;;;2.22;;
19554;SDS011;9924;50.828;6.440;2023-09-19T06:40:59;10.98;;;2.45;;
19554;SDS011;9924;50.828;6.440;2023-09-19T06:43:27;9.18;;;2.20;;
19554;SDS011;9924;50.828;6.440;2023-09-19T06:45:55;11.52;;;2.65;;
19554;SDS011;9924;50.828;6.440;2023-09-19T06:48:22;8.40;;;1.83;;
19554;SDS011;9924;50.828;6.440;2023-09-19T06:50:50;13.65;;;2.20;;
19554;SDS011;9924;50.828;6.440;2023-09-19T06:53:15;12.88;;;2.53;;
19554;SDS011;9924;50.828;6.440;2023-09-19T06:55:43;8.95;;;1.90;;
19554;SDS011;9924;50.828;6.440;2023-09-19T06:58:09;9.35;;;2.22;;
19554;SDS011;9924;50.828;6.440;2023-09-19T07:00:35;12.02;;;2.25;;
19554;SDS011;9924;50.828;6.440;2023-09-19T07:05:31;9.40;;;2.47;;
19554;SDS011;9924;50.828;6.440;2023-09-19T07:07:59;8.25;;;2.17;;
19554;SDS011;9924;50.828;6.440;2023-09-19T07:10:27;8.43;;;2.40;;
19554;SDS011;9924;50.828;6.440;2023-09-19T07:12:56;10.20;;;2.30;;
19554;SDS011;9924;50.828;6.440;2023-09-19T07:15:27;14.43;;;2.90;;
19554;SDS011;9924;50.828;6.440;2023-09-19T07:17:54;15.90;;;2.92;;
19554;SDS011;9924;50.828;6.440;2023-09-19T07:20:21;8.38;;;2.13;;
19554;SDS011;9924;50.828;6.440;2023-09-19T07:22:48;6.80;;;2.25;;
19554;SDS011;9924;50.828;6.440;2023-09-19T07:25:15;7.07;;;2.22;;
19554;SDS011;9924;50.828;6.440;2023-09-19T07:27:42;11.82;;;2.15;;
19554;SDS011;9924;50.828;6.440;2023-09-19T07:30:08;10.48;;;2.22;;
19554;SDS011;9924;50.828;6.440;2023-09-19T07:32:36;10.25;;;2.17;;
19554;SDS011;9924;50.828;6.440;2023-09-19T07:35:03;10.35;;;2.40;;
19554;SDS011;9924;50.828;6.440;2023-09-19T07:37:30;7.05;;;1.95;;
19554;SDS011;9924;50.828;6.440;2023-09-19T07:40:01;11.35;;;2.50;;
19554;SDS011;9924;50.828;6.440;2023-09-19T07:42:32;10.25;;;2.08;;
19554;SDS011;9924;50.828;6.440;2023-09-19T07:45:02;7.93;;;1.77;;
19554;SDS011;9924;50.828;6.440;2023-09-19T07:47:28;11.13;;;2.30;;
19554;SDS011;9924;50.828;6.440;2023-09-19T07:49:55;10.18;;;2.50;;
19554;SDS011;9924;50.828;6.440;2023-09-19T07:52:21;8.88;;;2.55;;
19554;SDS011;9924;50.828;6.440;2023-09-19T07:54:48;10.13;;;2.28;;
19554;SDS011;9924;50.828;6.440;2023-09-19T07:57:14;11.95;;;1.88;;
19554;SDS011;9924;50.828;6.440;2023-09-19T07:59:41;11.43;;;2.10;;
19554;SDS011;9924;50.828;6.440;2023-09-19T08:02:07;10.07;;;2.10;;
19554;SDS011;9924;50.828;6.440;2023-09-19T08:04:35;11.73;;;2.25;;
19554;SDS011;9924;50.828;6.440;2023-09-19T08:07:00;11.82;;;1.60;;
19554;SDS011;9924;50.828;6.440;2023-09-19T08:09:28;9.88;;;2.97;;
19554;SDS011;9924;50.828;6.440;2023-09-19T08:11:58;8.57;;;1.90;;
19554;SDS011;9924;50.828;6.440;2023-09-19T08:14:29;10.30;;;2.45;;
19554;SDS011;9924;50.828;6.440;2023-09-19T08:16:57;9.93;;;2.45;;
19554;SDS011;9924;50.828;6.440;2023-09-19T08:19:24;16.40;;;2.22;;
19554;SDS011;9924;50.828;6.440;2023-09-19T08:21:56;8.90;;;2.03;;
19554;SDS011;9924;50.828;6.440;2023-09-19T08:24:29;14.05;;;2.20;;
19554;SDS011;9924;50.828;6.440;2023-09-19T08:26:56;7.13;;;1.58;;
19554;SDS011;9924;50.828;6.440;2023-09-19T08:29:23;9.68;;;1.70;;
19554;SDS011;9924;50.828;6.440;2023-09-19T08:31:59;11.52;;;1.88;;
19554;SDS011;9924;50.828;6.440;2023-09-19T08:34:25;8.45;;;2.05;;
19554;SDS011;9924;50.828;6.440;2023-09-19T08:36:51;7.00;;;1.80;;
19554;SDS011;9924;50.828;6.440;2023-09-19T08:39:25;6.25;;;1.90;;
19554;SDS011;9924;50.828;6.440;2023-09-19T08:41:57;6.22;;;1.70;;
19554;SDS011;9924;50.828;6.440;2023-09-19T08:44:24;10.60;;;1.73;;
19554;SDS011;9924;50.828;6.440;2023-09-19T08:46:50;7.65;;;2.45;;
19554;SDS011;9924;50.828;6.440;2023-09-19T08:52:40;8.95;;;1.80;;
19554;SDS011;9924;50.828;6.440;2023-09-19T08:55:07;8.25;;;1.70;;
19554;SDS011;9924;50.828;6.440;2023-09-19T08:57:36;8.88;;;1.98;;
19554;SDS011;9924;50.828;6.440;2023-09-19T09:00:06;6.10;;;1.65;;
19554;SDS011;9924;50.828;6.440;2023-09-19T09:02:39;8.20;;;2.03;;
19554;SDS011;9924;50.828;6.440;2023-09-19T09:05:08;10.60;;;2.28;;
19554;SDS011;9924;50.828;6.440;2023-09-19T09:07:37;8.55;;;1.85;;
19554;SDS011;9924;50.828;6.440;2023-09-19T09:10:04;10.13;;;2.53;;
19554;SDS011;9924;50.828;6.440;2023-09-19T09:12:31;4.38;;;1.50;;
19554;SDS011;9924;50.828;6.440;2023-09-19T09:14:57;7.45;;;1.63;;
19554;SDS011;9924;50.828;6.440;2023-09-19T09:17:23;8.60;;;2.25;;
19554;SDS011;9924;50.828;6.440;2023-09-19T09:19:51;8.32;;;1.88;;
19554;SDS011;9924;50.828;6.440;2023-09-19T09:22:18;8.73;;;1.80;;
19554;SDS011;9924;50.828;6.440;2023-09-19T09:24:56;7.43;;;1.63;;
19554;SDS011;9924;50.828;6.440;2023-09-19T09:27:31;6.45;;;1.50;;
19554;SDS011;9924;50.828;6.440;2023-09-19T09:29:59;8.70;;;1.85;;
19554;SDS011;9924;50.828;6.440;2023-09-19T09:32:25;6.40;;;1.50;;
19554;SDS011;9924;50.828;6.440;2023-09-19T09:34:58;4.30;;;1.35;;
19554;SDS011;9924;50.828;6.440;2023-09-19T09:37:26;7.18;;;1.80;;
19554;SDS011;9924;50.828;6.440;2023-09-19T09:40:00;6.13;;;1.80;;
19554;SDS011;9924;50.828;6.440;2023-09-19T09:42:41;7.95;;;1.50;;
19554;SDS011;9924;50.828;6.440;2023-09-19T09:48:02;8.02;;;1.90;;
19554;SDS011;9924;50.828;6.440;2023-09-19T09:50:33;7.07;;;1.50;;
19554;SDS011;9924;50.828;6.440;2023-09-19T09:53:25;6.32;;;1.80;;
19554;SDS011;9924;50.828;6.440;2023-09-19T09:58:27;8.07;;;1.77;;
19554;SDS011;9924;50.828;6.440;2023-09-19T10:00:57;7.85;;;1.90;;
19554;SDS011;9924;50.828;6.440;2023-09-19T10:03:37;7.35;;;1.92;;
19554;SDS011;9924;50.828;6.440;2023-09-19T10:06:09;5.70;;;1.65;;
19554;SDS011;9924;50.828;6.440;2023-09-19T10:08:58;8.18;;;2.38;;
19554;SDS011;9924;50.828;6.440;2023-09-19T10:11:46;6.93;;;1.63;;
19554;SDS011;9924;50.828;6.440;2023-09-19T10:14:19;9.32;;;2.20;;
19554;SDS011;9924;50.828;6.440;2023-09-19T10:16:49;8.70;;;1.80;;
19554;SDS011;9924;50.828;6.440;2023-09-19T10:19:29;8.00;;;2.33;;
19554;SDS011;9924;50.828;6.440;2023-09-19T10:21:58;6.03;;;1.95;;
19554;SDS011;9924;50.828;6.440;2023-09-19T10:24:26;7.05;;;1.92;;
19554;SDS011;9924;50.828;6.440;2023-09-19T10:26:53;6.22;;;1.75;;
19554;SDS011;9924;50.828;6.440;2023-09-19T10:29:20;5.88;;;2.05;;
19554;SDS011;9924;50.828;6.440;2023-09-19T10:31:47;7.53;;;1.90;;
19554;SDS011;9924;50.828;6.440;2023-09-19T10:34:16;4.47;;;1.88;;
19554;SDS011;9924;50.828;6.440;2023-09-19T10:36:45;5.38;;;1.60;;
19554;SDS011;9924;50.828;6.440;2023-09-19T10:39:15;6.45;;;1.95;;
19554;SDS011;9924;50.828;6.440;2023-09-19T10:41:45;5.55;;;1.88;;
19554;SDS011;9924;50.828;6.440;2023-09-19T10:44:24;6.55;;;1.92;;
19554;SDS011;9924;50.828;6.440;2023-09-19T10:46:52;6.07;;;1.90;;
19554;SDS011;9924;50.828;6.440;2023-09-19T10:49:19;7.90;;;2.22;;
19554;SDS011;9924;50.828;6.440;2023-09-19T10:51:46;5.40;;;1.52;;
19554;SDS011;9924;50.828;6.440;2023-09-19T10:54:15;5.13;;;1.75;;
19554;SDS011;9924;50.828;6.440;2023-09-19T10:56:46;5.25;;;1.95;;
19554;SDS011;9924;50.828;6.440;2023-09-19T10:59:15;7.35;;;2.13;;
19554;SDS011;9924;50.828;6.440;2023-09-19T11:01:49;6.68;;;1.73;;
19554;SDS011;9924;50.828;6.440;2023-09-19T11:04:26;4.50;;;1.40;;
19554;SDS011;9924;50.828;6.440;2023-09-19T11:07:29;7.28;;;2.28;;
19554;SDS011;9924;50.828;6.440;2023-09-19T11:09:54;5.93;;;1.60;;
19554;SDS011;9924;50.828;6.440;2023-09-19T11:14:54;5.07;;;1.50;;
19554;SDS011;9924;50.828;6.440;2023-09-19T11:28:38;5.18;;;1.73;;
19554;SDS011;9924;50.828;6.440;2023-09-19T11:30:50;4.72;;;1.38;;
19554;SDS011;9924;50.828;6.440;2023-09-19T11:46:32;8.45;;;2.08;;
19554;SDS011;9924;50.828;6.440;2023-09-19T11:49:05;5.70;;;1.70;;
19554;SDS011;9924;50.828;6.440;2023-09-19T11:51:40;6.47;;;1.60;;
19554;SDS011;9924;50.828;6.440;2023-09-19T11:54:10;6.45;;;1.67;;
19554;SDS011;9924;50.828;6.440;2023-09-19T11:56:44;5.22;;;1.73;;
19554;SDS011;9924;50.828;6.440;2023-09-19T11:59:11;4.90;;;1.70;;
19554;SDS011;9924;50.828;6.440;2023-09-19T12:01:50;5.57;;;1.60;;
19554;SDS011;9924;50.828;6.440;2023-09-19T12:04:33;5.82;;;1.40;;
19554;SDS011;9924;50.828;6.440;2023-09-19T12:07:00;5.75;;;1.60;;
19554;SDS011;9924;50.828;6.440;2023-09-19T12:09:26;5.95;;;1.42;;
19554;SDS011;9924;50.828;6.440;2023-09-19T12:11:53;2.47;;;1.02;;
19554;SDS011;9924;50.828;6.440;2023-09-19T12:14:22;6.07;;;1.50;;
19554;SDS011;9924;50.828;6.440;2023-09-19T12:16:54;8.18;;;1.65;;
19554;SDS011;9924;50.828;6.440;2023-09-19T12:19:21;4.78;;;1.50;;
19554;SDS011;9924;50.828;6.440;2023-09-19T12:21:57;5.65;;;1.50;;
19554;SDS011;9924;50.828;6.440;2023-09-19T12:24:27;6.55;;;1.83;;
19554;SDS011;9924;50.828;6.440;2023-09-19T12:26:59;4.13;;;1.55;;
19554;SDS011;9924;50.828;6.440;2023-09-19T12:29:26;5.28;;;1.40;;
19554;SDS011;9924;50.828;6.440;2023-09-19T12:31:53;3.05;;;1.10;;
19554;SDS011;9924;50.828;6.440;2023-09-19T12:34:26;6.75;;;1.45;;
19554;SDS011;9924;50.828;6.440;2023-09-19T12:37:05;4.90;;;1.17;;
19554;SDS011;9924;50.828;6.440;2023-09-19T12:39:47;3.78;;;0.98;;
19554;SDS011;9924;50.828;6.440;2023-09-19T12:42:18;7.72;;;1.33;;
19554;SDS011;9924;50.828;6.440;2023-09-19T12:44:46;4.45;;;1.30;;
19554;SDS011;9924;50.828;6.440;2023-09-19T12:47:17;3.55;;;1.42;;
19554;SDS011;9924;50.828;6.440;2023-09-19T12:55:31;3.53;;;1.10;;
19554;SDS011;9924;50.828;6.440;2023-09-19T13:00:37;1.90;;;0.80;;
19554;SDS011;9924;50.828;6.440;2023-09-19T13:03:18;2.22;;;1.00;;
19554;SDS011;9924;50.828;6.440;2023-09-19T13:06:00;3.60;;;0.90;;
19554;SDS011;9924;50.828;6.440;2023-09-19T13:08:47;3.17;;;1.25;;
19554;SDS011;9924;50.828;6.440;2023-09-19T13:11:19;3.65;;;0.93;;
19554;SDS011;9924;50.828;6.440;2023-09-19T13:13:47;3.50;;;1.10;;
19554;SDS011;9924;50.828;6.440;2023-09-19T13:25:01;3.50;;;0.90;;
19554;SDS011;9924;50.828;6.440;2023-09-19T13:27:29;4.00;;;1.02;;
19554;SDS011;9924;50.828;6.440;2023-09-19T13:29:54;2.88;;;0.88;;
19554;SDS011;9924;50.828;6.440;2023-09-19T13:32:20;2.75;;;0.90;;
19554;SDS011;9924;50.828;6.440;2023-09-19T13:34:46;2.58;;;0.80;;
19554;SDS011;9924;50.828;6.440;2023-09-19T13:37:11;3.25;;;1.00;;
19554;SDS011;9924;50.828;6.440;2023-09-19T13:39:38;3.92;;;1.08;;
19554;SDS011;9924;50.828;6.440;2023-09-19T13:42:08;6.03;;;1.02;;
19554;SDS011;9924;50.828;6.440;2023-09-19T13:44:37;2.85;;;0.70;;
19554;SDS011;9924;50.828;6.440;2023-09-19T13:47:03;3.35;;;0.90;;
19554;SDS011;9924;50.828;6.440;2023-09-19T13:49:34;3.33;;;1.00;;
19554;SDS011;9924;50.828;6.440;2023-09-19T13:52:00;2.58;;;1.00;;
19554;SDS011;9924;50.828;6.440;2023-09-19T13:54:30;2.95;;;0.82;;
19554;SDS011;9924;50.828;6.440;2023-09-19T13:56:56;5.78;;;1.05;;
19554;SDS011;9924;50.828;6.440;2023-09-19T13:59:21;2.70;;;0.75;;
19554;SDS011;9924;50.828;6.440;2023-09-19T14:01:49;2.03;;;0.70;;
19554;SDS011;9924;50.828;6.440;2023-09-19T14:04:15;2.80;;;0.70;;
19554;SDS011;9924;50.828;6.440;2023-09-19T14:06:42;1.92;;;0.73;;
19554;SDS011;9924;50.828;6.440;2023-09-19T14:09:08;2.35;;;0.68;;
19554;SDS011;9924;50.828;6.440;2023-09-19T14:11:35;3.85;;;0.70;;
19554;SDS011;9924;50.828;6.440;2023-09-19T14:14:01;4.15;;;1.20;;
19554;SDS011;9924;50.828;6.440;2023-09-19T14:16:27;4.07;;;0.90;;
19554;SDS011;9924;50.828;6.440;2023-09-19T14:18:56;1.65;;;0.85;;
19554;SDS011;9924;50.828;6.440;2023-09-19T14:21:22;4.15;;;0.80;;
19554;SDS011;9924;50.828;6.440;2023-09-19T14:23:48;5.32;;;1.00;;
19554;SDS011;9924;50.828;6.440;2023-09-19T14:26:14;3.05;;;0.90;;
19554;SDS011;9924;50.828;6.440;2023-09-19T14:28:41;3.88;;;1.00;;
19554;SDS011;9924;50.828;6.440;2023-09-19T14:31:08;5.20;;;0.60;;
19554;SDS011;9924;50.828;6.440;2023-09-19T14:33:35;4.60;;;0.95;;
19554;SDS011;9924;50.828;6.440;2023-09-19T14:36:07;2.50;;;0.52;;
19554;SDS011;9924;50.828;6.440;2023-09-19T14:38:36;3.42;;;1.08;;
19554;SDS011;9924;50.828;6.440;2023-09-19T14:41:04;3.45;;;0.88;;
19554;SDS011;9924;50.828;6.440;2023-09-19T14:43:31;3.38;;;0.80;;
19554;SDS011;9924;50.828;6.440;2023-09-19T14:46:04;3.88;;;0.90;;
19554;SDS011;9924;50.828;6.440;2023-09-19T14:48:32;3.72;;;0.77;;
19554;SDS011;9924;50.828;6.440;2023-09-19T14:51:05;3.83;;;0.65;;
19554;SDS011;9924;50.828;6.440;2023-09-19T14:53:33;3.53;;;0.70;;
19554;SDS011;9924;50.828;6.440;2023-09-19T14:56:00;4.03;;;1.25;;
19554;SDS011;9924;50.828;6.440;2023-09-19T14:58:28;4.88;;;0.73;;
19554;SDS011;9924;50.828;6.440;2023-09-19T15:01:10;2.33;;;0.68;;
19554;SDS011;9924;50.828;6.440;2023-09-19T15:03:38;2.97;;;0.73;;
19554;SDS011;9924;50.828;6.440;2023-09-19T15:06:08;2.00;;;0.70;;
19554;SDS011;9924;50.828;6.440;2023-09-19T15:08:39;3.60;;;0.80;;
19554;SDS011;9924;50.828;6.440;2023-09-19T15:11:06;2.47;;;0.63;;
19554;SDS011;9924;50.828;6.440;2023-09-19T15:13:32;3.63;;;0.88;;
19554;SDS011;9924;50.828;6.440;2023-09-19T15:16:02;6.38;;;1.42;;
19554;SDS011;9924;50.828;6.440;2023-09-19T15:18:29;3.05;;;0.88;;
19554;SDS011;9924;50.828;6.440;2023-09-19T15:20:56;1.88;;;0.65;;
19554;SDS011;9924;50.828;6.440;2023-09-19T15:23:22;3.92;;;1.10;;
19554;SDS011;9924;50.828;6.440;2023-09-19T15:25:50;7.88;;;0.93;;
19554;SDS011;9924;50.828;6.440;2023-09-19T15:28:18;1.75;;;0.80;;
19554;SDS011;9924;50.828;6.440;2023-09-19T15:30:47;4.63;;;1.00;;
19554;SDS011;9924;50.828;6.440;2023-09-19T15:33:22;4.78;;;0.70;;
19554;SDS011;9924;50.828;6.440;2023-09-19T15:35:47;4.32;;;0.98;;
19554;SDS011;9924;50.828;6.440;2023-09-19T15:38:13;3.50;;;0.90;;
19554;SDS011;9924;50.828;6.440;2023-09-19T15:40:45;3.75;;;0.90;;
19554;SDS011;9924;50.828;6.440;2023-09-19T15:43:12;2.60;;;0.75;;
19554;SDS011;9924;50.828;6.440;2023-09-19T15:45:38;2.97;;;0.95;;
19554;SDS011;9924;50.828;6.440;2023-09-19T15:48:03;2.20;;;0.70;;
19554;SDS011;9924;50.828;6.440;2023-09-19T15:50:30;3.90;;;0.80;;
19554;SDS011;9924;50.828;6.440;2023-09-19T15:52:55;3.80;;;1.00;;
19554;SDS011;9924;50.828;6.440;2023-09-19T15:55:22;4.13;;;0.82;;
19554;SDS011;9924;50.828;6.440;2023-09-19T15:57:48;7.03;;;1.02;;
19554;SDS011;9924;50.828;6.440;2023-09-19T16:00:14;2.30;;;0.80;;
19554;SDS011;9924;50.828;6.440;2023-09-19T16:02:42;2.45;;;0.80;;
19554;SDS011;9924;50.828;6.440;2023-09-19T16:05:12;3.90;;;0.82;;
19554;SDS011;9924;50.828;6.440;2023-09-19T16:07:38;7.78;;;1.20;;
19554;SDS011;9924;50.828;6.440;2023-09-19T16:10:04;5.22;;;0.93;;
19554;SDS011;9924;50.828;6.440;2023-09-19T16:12:30;3.50;;;0.82;;
19554;SDS011;9924;50.828;6.440;2023-09-19T16:14:56;6.75;;;1.20;;
19554;SDS011;9924;50.828;6.440;2023-09-19T16:17:22;3.15;;;1.15;;
19554;SDS011;9924;50.828;6.440;2023-09-19T16:19:47;7.18;;;1.10;;
19554;SDS011;9924;50.828;6.440;2023-09-19T16:22:13;3.42;;;1.35;;
19554;SDS011;9924;50.828;6.440;2023-09-19T16:24:39;2.50;;;0.77;;